Time;durP1;ratioP1;P1;durP2;ratioP2;P2;SDS_P1;SDS_P2;PMS_P1;PMS_P2;Temp;Humidity;BMP_temperature;BMP_pressure;BME280_temperature;BME280_humidity;BME280_pressure;Samples;Min_cycle;Max_cycle;Signal;HPM_P1;HPM_P2
2023/11/11 00:00:00;;;;;;;1.42;1.05;;;20.60;94.60;;;;;;5025791;28;20221;-62
2023/11/11 00:02:27;;;;;;;1.10;0.80;;;20.70;94.60;;;;;;5028130;28;20211;-63
2023/11/11 00:04:53;;;;;;;4.55;2.03;;;20.70;94.60;;;;;;5029332;28;20209;-63
2023/11/11 00:07:23;;;;;;;2.28;1.13;;;20.70;94.80;;;;;;5031264;28;20205;-61
2023/11/11 00:09:50;;;;;;;6.78;1.10;;;20.70;94.90;;;;;;5020585;28;20203;-63
2023/11/11 00:12:17;;;;;;;1.40;1.20;;;20.60;94.90;;;;;;5022630;28;20203;-61
2023/11/11 00:14:44;;;;;;;1.77;0.95;;;20.60;94.90;;;;;;5023005;28;20201;-62
2023/11/11 00:17:11;;;;;;;1.45;1.00;;;20.70;95.10;;;;;;5024032;28;20196;-59
2023/11/11 00:19:38;;;;;;;1.20;1.10;;;20.70;95.00;;;;;;5023850;28;20215;-61
2023/11/11 00:22:05;;;;;;;1.88;0.90;;;20.60;95.10;;;;;;5029844;28;20187;-63
2023/11/11 00:24:33;;;;;;;1.20;0.90;;;20.60;95.20;;;;;;5034401;28;20191;-60
2023/11/11 00:27:00;;;;;;;1.52;0.90;;;20.60;95.10;;;;;;5029983;28;20781;-63
2023/11/11 00:29:27;;;;;;;2.30;1.52;;;20.60;95.20;;;;;;5022899;28;20728;-62
2023/11/11 00:31:54;;;;;;;1.00;0.82;;;20.60;95.40;;;;;;5014631;28;20235;-63
2023/11/11 00:34:21;;;;;;;2.15;1.10;;;20.60;95.30;;;;;;5026716;28;20497;-64
2023/11/11 00:36:50;;;;;;;1.20;0.90;;;20.60;95.40;;;;;;5026610;28;20643;-63
2023/11/11 00:39:16;;;;;;;0.90;0.70;;;20.60;95.30;;;;;;5024558;28;20207;-62
2023/11/11 00:41:44;;;;;;;1.25;1.00;;;20.60;95.30;;;;;;5028029;28;20202;-63
2023/11/11 00:44:11;;;;;;;1.70;1.20;;;20.60;95.40;;;;;;5024168;28;20191;-61
2023/11/11 00:46:38;;;;;;;1.60;1.10;;;20.60;95.30;;;;;;5026823;28;20198;-61
2023/11/11 00:49:06;;;;;;;2.63;1.00;;;20.60;95.20;;;;;;5022820;28;20541;-62
2023/11/11 00:51:32;;;;;;;1.60;1.02;;;20.50;95.20;;;;;;5025978;28;20195;-61
2023/11/11 00:53:59;;;;;;;1.38;0.90;;;20.50;95.20;;;;;;5029663;28;20675;-62
2023/11/11 00:56:26;;;;;;;2.00;1.30;;;20.60;95.40;;;;;;5025954;28;20208;-62
2023/11/11 00:58:54;;;;;;;1.55;0.95;;;20.60;95.20;;;;;;5027530;28;20230;-63
2023/11/11 01:01:21;;;;;;;6.03;1.10;;;20.50;95.10;;;;;;5027324;28;20746;-63
2023/11/11 01:03:48;;;;;;;3.05;1.05;;;20.50;95.10;;;;;;5029085;28;20211;-63
2023/11/11 01:06:14;;;;;;;1.23;0.80;;;20.50;95.20;;;;;;5025788;28;20196;-59
2023/11/11 01:08:41;;;;;;;1.20;0.98;;;20.50;95.10;;;;;;5028701;28;20593;-64
2023/11/11 01:11:08;;;;;;;1.40;0.90;;;20.50;95.00;;;;;;5027112;28;20218;-62
2023/11/11 01:13:35;;;;;;;1.20;0.80;;;20.50;95.10;;;;;;5029187;28;20198;-63
2023/11/11 01:16:04;;;;;;;2.38;1.52;;;20.50;95.10;;;;;;5027074;28;20316;-64
2023/11/11 01:18:31;;;;;;;1.98;1.10;;;20.50;95.10;;;;;;5026721;28;20277;-61
2023/11/11 01:20:59;;;;;;;1.40;1.10;;;20.50;94.90;;;;;;5026177;28;20258;-62
2023/11/11 01:23:25;;;;;;;1.58;0.85;;;20.50;95.00;;;;;;5027099;28;20286;-61
2023/11/11 01:25:52;;;;;;;1.27;0.80;;;20.50;95.10;;;;;;5025671;28;20198;-61
2023/11/11 01:28:19;;;;;;;1.10;0.90;;;20.50;95.00;;;;;;5025280;28;20590;-62
2023/11/11 01:30:46;;;;;;;1.73;1.00;;;20.50;94.90;;;;;;5020764;28;20199;-63
2023/11/11 01:33:15;;;;;;;1.67;0.80;;;20.50;94.90;;;;;;5028768;28;20200;-62
2023/11/11 01:35:42;;;;;;;1.20;0.80;;;20.50;95.00;;;;;;5024858;28;20220;-60
2023/11/11 01:38:10;;;;;;;2.58;1.17;;;20.40;94.80;;;;;;5027364;28;20599;-63
2023/11/11 01:40:37;;;;;;;1.98;0.82;;;20.40;94.80;;;;;;5027833;28;20227;-62
2023/11/11 01:43:08;;;;;;;2.00;1.05;;;20.40;94.80;;;;;;5024377;28;20195;-61
2023/11/11 01:45:35;;;;;;;1.63;1.00;;;20.40;94.80;;;;;;5025411;28;20206;-61
2023/11/11 01:48:02;;;;;;;2.17;0.80;;;20.40;94.90;;;;;;5027743;28;20207;-63
2023/11/11 01:50:30;;;;;;;2.00;0.90;;;20.40;94.70;;;;;;5025429;28;20361;-59
2023/11/11 01:52:57;;;;;;;2.03;1.35;;;20.40;94.80;;;;;;5026141;28;20656;-62
2023/11/11 01:55:25;;;;;;;1.67;0.90;;;20.40;94.80;;;;;;5024659;28;20774;-61
2023/11/11 01:57:52;;;;;;;1.52;0.85;;;20.40;94.70;;;;;;5024387;28;20555;-61
2023/11/11 02:00:21;;;;;;;1.58;0.80;;;20.40;94.70;;;;;;5026950;28;20215;-62
2023/11/11 02:02:48;;;;;;;1.75;1.10;;;20.40;94.80;;;;;;5044777;22;20192;-54
2023/11/11 02:05:15;;;;;;;4.70;1.00;;;20.40;94.80;;;;;;5029846;28;20245;-58
2023/11/11 02:07:43;;;;;;;1.00;0.80;;;20.40;94.70;;;;;;5031709;28;20310;-57
2023/11/11 02:10:10;;;;;;;1.55;0.98;;;20.30;94.70;;;;;;5027422;28;20195;-55
2023/11/11 02:12:37;;;;;;;1.25;0.95;;;20.40;94.70;;;;;;5031824;28;20218;-57
2023/11/11 02:15:05;;;;;;;1.15;0.80;;;20.40;94.70;;;;;;5028558;28;20199;-56
2023/11/11 02:17:32;;;;;;;1.40;0.95;;;20.40;94.60;;;;;;5025499;28;20353;-55
2023/11/11 02:20:00;;;;;;;2.50;0.90;;;20.30;94.70;;;;;;5029450;28;20211;-57
2023/11/11 02:22:27;;;;;;;1.90;1.00;;;20.30;94.60;;;;;;5031726;28;20199;-54
2023/11/11 02:24:57;;;;;;;1.10;0.80;;;20.30;94.60;;;;;;5032354;28;20198;-54
2023/11/11 02:27:24;;;;;;;1.10;0.90;;;20.30;94.60;;;;;;5037688;28;20194;-55
2023/11/11 02:29:51;;;;;;;1.20;1.00;;;20.30;94.60;;;;;;5029500;28;20301;-55
2023/11/11 02:32:17;;;;;;;2.35;1.10;;;20.30;94.60;;;;;;5032760;28;20206;-54
2023/11/11 02:34:45;;;;;;;1.30;0.82;;;20.30;94.50;;;;;;5035884;28;20183;-54
2023/11/11 02:37:11;;;;;;;1.08;0.90;;;20.30;94.50;;;;;;5028000;28;20226;-59
2023/11/11 02:39:38;;;;;;;1.40;0.90;;;20.30;94.50;;;;;;5022829;28;20226;-56
2023/11/11 02:42:07;;;;;;;1.00;0.80;;;20.30;94.50;;;;;;5023182;28;20660;-54
2023/11/11 02:44:32;;;;;;;1.20;0.82;;;20.30;94.50;;;;;;5024109;28;20195;-56
2023/11/11 02:46:59;;;;;;;1.20;0.80;;;20.30;94.50;;;;;;5031967;28;20235;-53
2023/11/11 02:49:26;;;;;;;1.80;1.05;;;20.30;94.60;;;;;;5033298;28;20559;-55
2023/11/11 02:51:53;;;;;;;1.20;0.95;;;20.30;94.50;;;;;;5025642;28;20480;-55
2023/11/11 02:54:19;;;;;;;1.10;0.90;;;20.30;94.40;;;;;;5032815;28;20179;-55
2023/11/11 02:56:46;;;;;;;1.30;1.02;;;20.20;94.40;;;;;;5036093;28;20190;-54
2023/11/11 02:59:14;;;;;;;1.10;0.88;;;20.30;94.50;;;;;;5036074;28;20195;-54
2023/11/11 03:01:41;;;;;;;1.50;0.90;;;20.20;94.40;;;;;;5031440;28;20221;-58
2023/11/11 03:04:08;;;;;;;2.38;1.05;;;20.20;94.50;;;;;;5037454;28;20601;-55
2023/11/11 03:06:40;;;;;;;1.20;0.80;;;20.20;94.40;;;;;;5034218;28;20191;-55
2023/11/11 03:09:07;;;;;;;1.33;0.88;;;20.20;94.40;;;;;;5030809;28;20601;-58
2023/11/11 03:11:34;;;;;;;1.30;0.90;;;20.20;94.50;;;;;;5033241;28;20295;-54
2023/11/11 03:14:01;;;;;;;1.20;0.93;;;20.20;94.40;;;;;;5028131;28;20192;-55
2023/11/11 03:16:36;;;;;;;1.02;0.70;;;20.20;94.40;;;;;;5033014;28;20552;-56
2023/11/11 03:19:03;;;;;;;1.35;1.08;;;20.20;94.50;;;;;;5029389;28;20202;-56
2023/11/11 03:21:30;;;;;;;1.20;0.90;;;20.20;94.30;;;;;;5029125;28;20195;-54
2023/11/11 03:23:56;;;;;;;0.98;0.77;;;20.20;94.40;;;;;;5032300;28;20198;-54
2023/11/11 03:26:24;;;;;;;1.35;0.90;;;20.20;94.80;;;;;;5032961;28;20210;-56
2023/11/11 03:28:50;;;;;;;1.10;0.90;;;20.20;94.40;;;;;;5033447;28;20195;-56
2023/11/11 03:31:18;;;;;;;1.55;1.00;;;20.20;94.40;;;;;;5031037;28;20203;-55
2023/11/11 03:33:46;;;;;;;1.00;0.80;;;20.10;94.30;;;;;;5030023;28;20492;-56
2023/11/11 03:36:13;;;;;;;1.05;0.80;;;20.20;94.40;;;;;;5028486;28;20682;-53
2023/11/11 03:38:40;;;;;;;1.42;0.70;;;20.10;94.30;;;;;;5030737;28;20770;-57
2023/11/11 03:41:07;;;;;;;1.23;0.90;;;20.10;94.30;;;;;;5032386;28;20230;-55
2023/11/11 03:43:35;;;;;;;1.10;0.80;;;20.20;94.30;;;;;;5030950;28;20198;-55
2023/11/11 03:46:03;;;;;;;1.10;0.85;;;20.20;94.30;;;;;;5028801;28;20286;-55
2023/11/11 03:48:30;;;;;;;1.60;1.10;;;20.10;94.30;;;;;;5030939;28;20203;-53
2023/11/11 03:50:58;;;;;;;1.30;0.93;;;20.10;94.70;;;;;;5027760;28;20219;-55
2023/11/11 03:53:25;;;;;;;1.08;0.90;;;20.10;94.40;;;;;;5032740;28;20193;-53
2023/11/11 03:55:52;;;;;;;1.30;0.90;;;20.10;94.30;;;;;;5029644;28;20187;-53
2023/11/11 03:58:18;;;;;;;1.70;1.38;;;20.10;94.30;;;;;;5034275;28;20199;-54
2023/11/11 04:00:45;;;;;;;1.70;1.00;;;20.10;94.30;;;;;;5031680;28;20476;-54
2023/11/11 04:03:12;;;;;;;1.55;0.88;;;20.20;94.30;;;;;;5034793;28;20202;-54
2023/11/11 04:05:39;;;;;;;1.20;0.80;;;20.10;94.20;;;;;;5031517;28;20334;-56
2023/11/11 04:08:07;;;;;;;1.63;0.90;;;20.10;94.20;;;;;;5030872;28;20199;-54
2023/11/11 04:10:33;;;;;;;1.40;1.00;;;20.10;94.20;;;;;;5033045;28;20206;-54
2023/11/11 04:13:01;;;;;;;1.20;0.82;;;20.10;94.20;;;;;;5032513;28;20211;-55
2023/11/11 04:15:28;;;;;;;1.10;1.00;;;20.10;94.30;;;;;;5032860;28;20199;-54
2023/11/11 04:17:55;;;;;;;1.00;0.80;;;20.10;94.20;;;;;;5030797;28;20202;-57
2023/11/11 04:20:22;;;;;;;2.25;1.00;;;20.10;94.30;;;;;;5032312;28;20220;-54
2023/11/11 04:22:48;;;;;;;1.13;0.80;;;20.10;94.20;;;;;;5035655;28;20195;-55
2023/11/11 04:25:16;;;;;;;2.60;0.90;;;20.10;94.20;;;;;;5029550;28;20203;-57
2023/11/11 04:27:43;;;;;;;1.48;0.80;;;20.10;94.20;;;;;;5036116;28;20754;-54
2023/11/11 04:30:11;;;;;;;1.00;0.90;;;20.00;94.20;;;;;;5030403;28;20332;-55
2023/11/11 04:32:38;;;;;;;1.10;0.82;;;20.00;94.10;;;;;;5032273;28;20187;-53
2023/11/11 04:35:07;;;;;;;1.10;0.90;;;20.00;94.20;;;;;;5030786;28;20196;-55
2023/11/11 04:37:33;;;;;;;1.50;0.88;;;20.00;94.20;;;;;;5031150;28;20436;-54
2023/11/11 04:40:00;;;;;;;1.05;0.60;;;20.00;94.20;;;;;;5032946;28;20218;-54
2023/11/11 04:42:28;;;;;;;1.02;0.80;;;20.00;94.20;;;;;;5034761;28;20667;-56
2023/11/11 04:44:56;;;;;;;1.10;0.82;;;20.00;94.20;;;;;;5033683;28;20187;-55
2023/11/11 04:47:23;;;;;;;0.90;0.70;;;20.00;94.20;;;;;;5040014;28;20287;-55
2023/11/11 04:49:50;;;;;;;1.48;0.80;;;20.00;94.20;;;;;;5035761;28;20199;-54
2023/11/11 04:52:17;;;;;;;1.33;1.00;;;20.00;94.20;;;;;;5032183;28;20680;-55
2023/11/11 04:54:44;;;;;;;1.00;0.73;;;20.00;94.20;;;;;;5034269;28;20209;-54
2023/11/11 04:57:11;;;;;;;1.35;0.90;;;20.00;94.20;;;;;;5033529;28;20191;-56
2023/11/11 04:59:39;;;;;;;1.50;0.90;;;20.00;94.20;;;;;;5033946;28;20198;-57
2023/11/11 05:02:06;;;;;;;1.10;0.60;;;20.00;94.20;;;;;;5028257;28;20206;-58
2023/11/11 05:04:33;;;;;;;1.58;0.80;;;20.00;94.20;;;;;;5035853;28;20199;-57
2023/11/11 05:06:59;;;;;;;1.20;0.70;;;20.00;94.30;;;;;;5035171;28;20677;-53
2023/11/11 05:09:27;;;;;;;1.30;0.90;;;20.00;94.20;;;;;;5035078;28;20214;-55
2023/11/11 05:11:54;;;;;;;1.10;0.80;;;20.00;94.20;;;;;;5035384;28;20199;-57
2023/11/11 05:14:23;;;;;;;1.10;0.80;;;20.00;94.20;;;;;;5023038;28;20257;-54
2023/11/11 05:16:54;;;;;;;2.00;0.90;;;20.00;94.10;;;;;;5019678;28;20237;-56
2023/11/11 05:19:21;;;;;;;2.08;0.70;;;20.00;94.20;;;;;;5022865;28;20290;-54
2023/11/11 05:21:48;;;;;;;1.10;0.80;;;20.00;94.20;;;;;;5025218;28;20229;-53
2023/11/11 05:24:15;;;;;;;1.00;0.70;;;20.00;94.20;;;;;;5032982;28;20202;-55
2023/11/11 05:26:43;;;;;;;1.40;0.80;;;20.00;94.20;;;;;;5026506;28;20183;-54
2023/11/11 05:29:10;;;;;;;1.05;0.80;;;20.00;94.20;;;;;;5024790;28;20199;-56
2023/11/11 05:31:37;;;;;;;1.10;0.80;;;20.00;94.20;;;;;;5026893;28;20236;-57
2023/11/11 05:34:05;;;;;;;1.00;0.70;;;19.90;94.10;;;;;;5027419;28;20245;-57
2023/11/11 05:36:33;;;;;;;1.15;0.95;;;20.00;94.20;;;;;;5026217;28;20199;-53
2023/11/11 05:39:00;;;;;;;1.20;0.95;;;19.90;94.20;;;;;;5022972;28;20202;-55
2023/11/11 05:41:29;;;;;;;0.90;0.70;;;19.90;94.10;;;;;;5025964;28;20243;-56
2023/11/11 05:43:56;;;;;;;1.25;0.82;;;19.90;94.10;;;;;;5026644;28;20745;-56
2023/11/11 05:46:24;;;;;;;1.10;0.85;;;19.90;94.20;;;;;;5027868;28;20235;-55
2023/11/11 05:48:51;;;;;;;0.90;0.70;;;19.90;94.10;;;;;;5030342;28;20202;-56
2023/11/11 05:51:19;;;;;;;1.85;0.85;;;19.90;94.10;;;;;;5025893;28;20210;-58
2023/11/11 05:53:46;;;;;;;1.00;0.80;;;19.90;94.10;;;;;;5026060;28;20207;-57
2023/11/11 05:56:13;;;;;;;1.13;1.00;;;19.90;94.10;;;;;;5025296;28;20210;-56
2023/11/11 05:58:40;;;;;;;1.05;0.80;;;19.90;94.10;;;;;;5031470;28;20544;-57
2023/11/11 06:01:08;;;;;;;1.10;0.88;;;19.90;94.10;;;;;;5027567;28;20272;-57
2023/11/11 06:03:34;;;;;;;1.42;1.00;;;19.90;94.10;;;;;;5028325;28;20282;-55
2023/11/11 06:06:02;;;;;;;1.35;0.90;;;19.90;94.10;;;;;;5025299;28;20195;-56
2023/11/11 06:08:30;;;;;;;1.13;0.82;;;19.90;94.10;;;;;;5030462;28;20199;-55
2023/11/11 06:10:57;;;;;;;1.08;0.80;;;19.90;94.10;;;;;;5031268;28;20218;-54
2023/11/11 06:13:24;;;;;;;1.33;0.93;;;19.80;94.10;;;;;;5028895;28;20202;-54
2023/11/11 06:15:51;;;;;;;1.00;0.90;;;19.90;94.10;;;;;;5024824;28;20187;-54
2023/11/11 06:18:18;;;;;;;0.90;0.80;;;19.90;94.10;;;;;;5024601;28;20191;-56
2023/11/11 06:20:45;;;;;;;1.08;0.80;;;19.90;94.10;;;;;;5023999;28;20219;-54
2023/11/11 06:23:11;;;;;;;1.02;0.82;;;19.90;94.10;;;;;;5023855;28;20222;-56
2023/11/11 06:25:39;;;;;;;1.00;0.80;;;19.80;94.00;;;;;;5024918;28;20206;-54
2023/11/11 06:28:06;;;;;;;1.00;0.77;;;19.80;94.10;;;;;;5026063;28;20187;-58
2023/11/11 06:30:33;;;;;;;1.15;0.98;;;19.80;94.10;;;;;;5024536;28;20187;-55
2023/11/11 06:33:00;;;;;;;1.08;0.70;;;19.80;94.00;;;;;;5026994;28;20191;-56
2023/11/11 06:35:28;;;;;;;0.95;0.75;;;19.80;94.10;;;;;;5027848;28;20934;-55
2023/11/11 06:37:55;;;;;;;1.10;0.90;;;19.80;94.10;;;;;;5029812;28;20184;-56
2023/11/11 06:40:22;;;;;;;1.00;0.70;;;19.80;94.10;;;;;;5026301;28;20203;-56
2023/11/11 06:42:54;;;;;;;1.35;0.93;;;19.80;94.10;;;;;;5026153;28;20202;-54
2023/11/11 06:45:21;;;;;;;1.10;0.88;;;19.80;94.10;;;;;;5025495;28;20199;-56
2023/11/11 06:47:48;;;;;;;1.10;0.95;;;19.80;94.10;;;;;;5030411;28;20578;-59
2023/11/11 06:50:17;;;;;;;1.10;1.00;;;19.80;94.00;;;;;;5028983;28;20333;-53
2023/11/11 06:52:44;;;;;;;1.20;0.80;;;19.80;94.10;;;;;;5028615;28;20199;-56
2023/11/11 06:55:11;;;;;;;1.00;0.80;;;19.80;94.10;;;;;;5027664;28;20199;-57
2023/11/11 06:57:39;;;;;;;1.20;0.90;;;19.80;94.10;;;;;;5027872;28;20500;-55
2023/11/11 07:00:15;;;;;;;1.23;0.88;;;19.80;94.10;;;;;;5026492;28;20202;-58
2023/11/11 07:02:43;;;;;;;1.17;0.80;;;19.80;94.10;;;;;;5026038;28;20332;-54
2023/11/11 07:05:10;;;;;;;1.08;0.80;;;19.80;94.10;;;;;;5024677;28;20218;-58
2023/11/11 07:07:38;;;;;;;1.05;0.75;;;19.80;94.20;;;;;;5027853;28;20207;-54
2023/11/11 07:10:05;;;;;;;1.05;0.70;;;19.80;94.10;;;;;;5029879;28;20671;-58
2023/11/11 07:12:34;;;;;;;1.00;0.80;;;19.80;94.10;;;;;;5028054;28;20206;-54
2023/11/11 07:15:00;;;;;;;1.10;0.90;;;19.70;94.00;;;;;;5019416;28;20195;-55
2023/11/11 07:17:29;;;;;;;1.30;0.80;;;19.70;94.30;;;;;;5030670;28;20667;-54
2023/11/11 07:19:58;;;;;;;1.08;0.82;;;19.70;94.10;;;;;;5033271;28;20200;-54
2023/11/11 07:22:24;;;;;;;1.58;0.93;;;19.80;94.10;;;;;;5030825;28;20230;-55
2023/11/11 07:24:51;;;;;;;1.17;0.93;;;19.70;94.10;;;;;;5030426;28;20199;-55
2023/11/11 07:27:18;;;;;;;1.70;1.08;;;19.70;94.10;;;;;;5028391;28;21429;-56
2023/11/11 07:29:44;;;;;;;1.00;0.70;;;19.70;94.00;;;;;;5023141;28;20623;-57
2023/11/11 07:32:12;;;;;;;1.00;0.85;;;19.70;94.10;;;;;;5028072;28;20259;-54
2023/11/11 07:34:43;;;;;;;1.27;0.80;;;19.70;94.00;;;;;;5032029;28;20288;-55
2023/11/11 07:37:11;;;;;;;1.10;0.90;;;19.70;94.10;;;;;;5035188;28;20274;-55
2023/11/11 07:39:39;;;;;;;1.00;0.80;;;19.70;94.10;;;;;;5036658;28;20277;-55
2023/11/11 07:42:07;;;;;;;5.93;1.35;;;19.70;94.10;;;;;;5035024;28;20222;-53
2023/11/11 07:44:34;;;;;;;1.00;0.70;;;19.70;94.20;;;;;;5036816;28;20199;-55
2023/11/11 07:47:01;;;;;;;2.13;1.00;;;19.70;94.30;;;;;;5032050;28;20211;-56
2023/11/11 07:49:27;;;;;;;1.27;0.90;;;19.70;94.10;;;;;;5035108;28;20218;-54
2023/11/11 07:51:55;;;;;;;1.10;0.80;;;19.70;94.10;;;;;;5022130;28;20205;-53
2023/11/11 07:54:22;;;;;;;1.25;0.93;;;19.70;94.20;;;;;;5037958;28;20209;-57
2023/11/11 07:56:49;;;;;;;1.02;0.90;;;19.70;94.40;;;;;;5037541;28;20662;-56
2023/11/11 07:59:17;;;;;;;1.65;0.70;;;19.70;94.30;;;;;;5026381;28;20207;-55
2023/11/11 08:01:43;;;;;;;1.60;0.90;;;19.70;94.20;;;;;;5021602;28;20229;-56
2023/11/11 08:04:10;;;;;;;1.75;0.60;;;19.80;94.30;;;;;;5026829;28;20210;-54
2023/11/11 08:06:38;;;;;;;1.20;0.80;;;19.80;94.20;;;;;;5028779;28;20925;-58
2023/11/11 08:09:09;;;;;;;1.10;0.73;;;19.80;94.30;;;;;;5030555;28;20249;-56
2023/11/11 08:11:36;;;;;;;1.10;0.80;;;19.80;94.70;;;;;;5033313;28;20191;-55
2023/11/11 08:14:04;;;;;;;2.75;1.10;;;19.90;95.20;;;;;;5027965;28;20188;-56
2023/11/11 08:16:31;;;;;;;2.58;0.80;;;19.90;95.10;;;;;;5033718;28;20207;-56
2023/11/11 08:18:57;;;;;;;4.05;1.27;;;20.00;94.80;;;;;;5029932;28;20218;-56
2023/11/11 08:21:31;;;;;;;2.28;0.80;;;20.00;94.60;;;;;;5030657;28;20226;-58
2023/11/11 08:23:58;;;;;;;1.58;0.80;;;20.00;94.70;;;;;;5035833;28;20203;-55
2023/11/11 08:26:26;;;;;;;1.15;0.80;;;20.00;94.70;;;;;;5037085;28;20533;-57
2023/11/11 08:28:53;;;;;;;1.45;0.95;;;20.00;94.80;;;;;;5024325;28;20196;-56
2023/11/11 08:31:20;;;;;;;1.00;0.75;;;20.10;94.80;;;;;;5022487;28;20907;-58
2023/11/11 08:33:47;;;;;;;1.40;0.85;;;20.10;94.60;;;;;;5031933;28;20203;-56
2023/11/11 08:36:14;;;;;;;1.00;0.80;;;20.10;94.60;;;;;;5031954;28;21210;-59
2023/11/11 08:38:41;;;;;;;1.45;1.17;;;20.10;94.70;;;;;;5024669;28;20196;-56
2023/11/11 08:41:08;;;;;;;3.72;1.00;;;20.10;94.80;;;;;;5029017;28;20224;-56
2023/11/11 08:43:36;;;;;;;1.30;0.90;;;20.10;94.70;;;;;;5029673;28;20225;-56
2023/11/11 08:46:03;;;;;;;1.23;0.90;;;20.10;94.70;;;;;;5027246;28;20195;-57
2023/11/11 08:48:31;;;;;;;1.75;0.75;;;20.10;94.80;;;;;;5029749;28;21220;-58
2023/11/11 08:50:59;;;;;;;1.33;0.90;;;20.10;94.70;;;;;;5032229;28;20204;-58
2023/11/11 08:53:26;;;;;;;1.20;0.80;;;20.10;94.60;;;;;;5025920;28;20195;-57
2023/11/11 08:55:53;;;;;;;1.17;0.90;;;20.10;94.60;;;;;;5030396;28;20298;-58
2023/11/11 08:58:20;;;;;;;1.48;1.00;;;20.10;94.60;;;;;;5029308;28;20548;-56
2023/11/11 09:00:48;;;;;;;1.25;0.82;;;20.10;94.70;;;;;;5022121;28;20230;-58
2023/11/11 09:03:17;;;;;;;1.00;0.80;;;20.10;94.80;;;;;;5025875;28;20248;-56
2023/11/11 09:05:44;;;;;;;1.27;0.75;;;20.10;94.70;;;;;;5027932;28;20195;-58
2023/11/11 09:08:11;;;;;;;1.60;0.88;;;20.10;94.70;;;;;;5026899;28;20207;-56
2023/11/11 09:10:39;;;;;;;1.20;1.00;;;20.00;94.70;;;;;;5031031;28;20219;-58
2023/11/11 09:13:08;;;;;;;2.85;1.15;;;20.00;95.00;;;;;;5027457;28;20294;-57
2023/11/11 09:15:35;;;;;;;1.42;0.80;;;20.00;95.10;;;;;;5030675;28;20842;-55
2023/11/11 09:18:03;;;;;;;2.90;0.90;;;20.00;95.20;;;;;;5027331;28;20209;-59
2023/11/11 09:20:30;;;;;;;1.45;1.00;;;20.10;95.60;;;;;;5028827;28;20289;-57
2023/11/11 09:22:56;;;;;;;1.35;0.85;;;20.10;95.80;;;;;;5030338;28;20221;-59
2023/11/11 09:25:23;;;;;;;2.35;1.00;;;20.10;95.70;;;;;;5029723;28;20452;-57
2023/11/11 09:27:50;;;;;;;1.80;0.90;;;20.10;95.80;;;;;;5025214;28;20235;-56
2023/11/11 09:30:18;;;;;;;0.90;0.80;;;20.10;95.70;;;;;;5025404;28;20191;-56
2023/11/11 09:32:44;;;;;;;1.40;0.90;;;20.20;96.20;;;;;;5029092;28;20636;-59
2023/11/11 09:35:13;;;;;;;2.13;0.90;;;20.20;96.00;;;;;;5025443;28;20195;-54
2023/11/11 09:37:41;;;;;;;2.38;0.90;;;20.20;96.00;;;;;;5027053;28;20195;-55
2023/11/11 09:40:11;;;;;;;1.80;1.30;;;20.20;95.80;;;;;;5034873;28;20664;-56
2023/11/11 09:42:38;;;;;;;1.45;0.80;;;20.20;95.90;;;;;;5032425;28;20219;-57
2023/11/11 09:45:05;;;;;;;1.10;0.90;;;20.20;96.00;;;;;;5029070;28;20554;-56
2023/11/11 09:47:33;;;;;;;1.80;1.10;;;20.20;95.90;;;;;;5033077;28;20558;-56
2023/11/11 09:50:01;;;;;;;6.80;0.95;;;20.30;96.10;;;;;;5025465;28;20671;-54
2023/11/11 09:52:31;;;;;;;1.10;0.80;;;20.30;96.00;;;;;;5026439;28;20204;-57
2023/11/11 09:54:59;;;;;;;2.15;1.45;;;20.40;96.10;;;;;;5032001;28;20342;-57
2023/11/11 09:57:29;;;;;;;3.30;0.90;;;20.40;96.20;;;;;;5036101;28;20207;-53
2023/11/11 09:59:57;;;;;;;1.63;0.90;;;20.40;96.20;;;;;;5035294;28;20199;-55
2023/11/11 10:02:26;;;;;;;1.00;0.80;;;20.40;96.20;;;;;;5036246;28;20223;-57
2023/11/11 10:04:53;;;;;;;1.23;0.77;;;20.40;96.20;;;;;;5034403;28;20206;-54
2023/11/11 10:07:21;;;;;;;1.73;1.40;;;20.40;96.20;;;;;;5030857;28;20705;-54
2023/11/11 10:09:49;;;;;;;1.75;1.00;;;20.50;96.20;;;;;;5035691;28;20230;-55
2023/11/11 10:12:16;;;;;;;2.45;1.00;;;20.50;96.20;;;;;;5037410;28;20218;-56
2023/11/11 10:14:43;;;;;;;1.20;0.90;;;20.50;96.20;;;;;;5034389;28;20646;-54
2023/11/11 10:17:11;;;;;;;2.28;1.00;;;20.50;96.20;;;;;;5038339;28;20199;-55
2023/11/11 10:19:41;;;;;;;1.10;0.95;;;20.50;96.20;;;;;;5037981;28;20199;-57
2023/11/11 10:22:08;;;;;;;1.33;0.97;;;20.60;96.20;;;;;;5027525;28;20207;-59
2023/11/11 10:24:35;;;;;;;1.50;1.10;;;20.50;96.20;;;;;;5023896;28;20462;-57
2023/11/11 10:27:04;;;;;;;1.80;1.00;;;20.60;96.20;;;;;;5025957;28;20463;-58
2023/11/11 10:29:35;;;;;;;1.53;1.10;;;20.60;96.20;;;;;;5025816;28;20229;-57
2023/11/11 10:32:08;;;;;;;1.45;0.90;;;20.60;96.50;;;;;;5024347;28;20470;-54
2023/11/11 10:34:36;;;;;;;1.10;0.80;;;20.60;96.20;;;;;;5036702;28;20256;-56
2023/11/11 10:37:03;;;;;;;2.23;1.13;;;20.60;96.20;;;;;;5037180;28;20226;-59
2023/11/11 10:39:34;;;;;;;2.60;1.10;;;20.60;96.20;;;;;;5026363;28;20462;-58
2023/11/11 10:42:03;;;;;;;1.02;0.90;;;20.70;96.20;;;;;;5023576;28;20467;-55
2023/11/11 10:44:32;;;;;;;1.63;0.90;;;20.70;96.10;;;;;;5022732;28;20277;-57
2023/11/11 10:46:59;;;;;;;1.00;0.80;;;20.70;96.10;;;;;;5024775;28;20647;-56
2023/11/11 10:49:26;;;;;;;1.50;0.90;;;20.70;96.10;;;;;;5024255;28;20962;-57
2023/11/11 10:51:54;;;;;;;1.17;0.80;;;20.70;96.00;;;;;;5022777;28;20832;-56
2023/11/11 10:54:24;;;;;;;1.33;1.00;;;20.70;96.00;;;;;;5030204;28;20457;-56
2023/11/11 10:56:51;;;;;;;1.77;1.10;;;20.70;96.00;;;;;;5025883;28;20187;-55
2023/11/11 10:59:21;;;;;;;1.13;0.90;;;20.70;96.00;;;;;;5027884;28;20457;-56
2023/11/11 11:01:48;;;;;;;1.10;0.80;;;20.70;96.00;;;;;;5031829;28;20462;-53
2023/11/11 11:04:15;;;;;;;1.73;1.07;;;20.70;96.00;;;;;;5030435;28;20206;-55
2023/11/11 11:06:50;;;;;;;1.35;0.93;;;20.70;96.10;;;;;;5029651;28;20508;-54
2023/11/11 11:09:30;;;;;;;1.10;0.90;;;20.70;96.10;;;;;;5034974;28;20197;-58
2023/11/11 11:12:06;;;;;;;1.50;0.90;;;20.80;96.10;;;;;;5036941;28;20206;-57
2023/11/11 11:14:44;;;;;;;1.50;0.82;;;20.80;96.20;;;;;;5033187;28;20970;-57
2023/11/11 11:17:12;;;;;;;2.92;1.00;;;20.80;96.10;;;;;;5038690;28;20195;-57
2023/11/11 11:19:52;;;;;;;1.57;1.00;;;20.80;96.10;;;;;;5039320;28;20324;-54
2023/11/11 11:22:19;;;;;;;1.00;0.80;;;20.80;96.10;;;;;;5035040;28;20488;-56
2023/11/11 11:24:46;;;;;;;1.50;1.00;;;20.90;96.10;;;;;;5032852;28;20451;-56
2023/11/11 11:27:13;;;;;;;1.67;0.80;;;20.90;96.10;;;;;;5032254;28;20490;-57
2023/11/11 11:29:41;;;;;;;1.20;0.80;;;20.90;96.00;;;;;;5032006;28;20461;-57
2023/11/11 11:32:09;;;;;;;1.30;0.80;;;20.90;96.00;;;;;;5031234;28;21025;-55
2023/11/11 11:34:37;;;;;;;1.25;0.90;;;20.90;96.00;;;;;;5034220;28;20831;-59
2023/11/11 11:37:05;;;;;;;1.07;0.87;;;20.90;96.00;;;;;;5033473;28;20594;-57
2023/11/11 11:39:47;;;;;;;1.83;1.20;;;20.90;96.00;;;;;;5030472;28;20465;-56
2023/11/11 11:42:22;;;;;;;1.03;0.80;;;20.90;96.00;;;;;;5034751;28;20469;-54
2023/11/11 11:44:57;;;;;;;1.33;0.93;;;21.00;96.00;;;;;;5037196;28;20468;-57
2023/11/11 11:47:27;;;;;;;5.10;1.10;;;21.00;95.90;;;;;;5032803;28;20452;-52
2023/11/11 11:49:55;;;;;;;1.47;0.90;;;21.00;96.00;;;;;;5027610;28;20450;-54
2023/11/11 11:52:22;;;;;;;1.20;0.90;;;21.00;95.90;;;;;;5036083;28;20698;-57
2023/11/11 11:54:49;;;;;;;1.47;1.00;;;21.00;95.90;;;;;;5028634;28;20462;-56
2023/11/11 11:57:16;;;;;;;3.63;1.40;;;21.00;95.90;;;;;;5027705;28;20468;-61
2023/11/11 11:59:44;;;;;;;1.47;1.27;;;21.00;96.00;;;;;;5032634;28;20550;-54
2023/11/11 12:02:12;;;;;;;1.63;1.07;;;21.00;95.40;;;;;;5031357;28;20519;-54
2023/11/11 12:04:39;;;;;;;3.70;1.03;;;21.00;95.90;;;;;;5029559;28;20756;-53
2023/11/11 12:07:07;;;;;;;1.63;1.10;;;21.10;95.70;;;;;;5027629;28;20460;-57
2023/11/11 12:09:35;;;;;;;1.93;1.10;;;21.10;95.60;;;;;;5031640;28;20984;-56
2023/11/11 12:12:06;;;;;;;3.43;1.30;;;21.10;95.60;;;;;;5031449;28;20467;-55
2023/11/11 12:14:33;;;;;;;1.10;0.90;;;21.10;95.60;;;;;;5033933;28;20457;-57
2023/11/11 12:17:01;;;;;;;1.48;1.05;;;21.10;95.50;;;;;;5035116;28;20462;-53
2023/11/11 12:19:30;;;;;;;3.53;1.07;;;21.10;95.50;;;;;;5034599;28;20206;-56
2023/11/11 12:21:58;;;;;;;1.40;1.20;;;21.10;95.50;;;;;;5031811;28;20473;-54
2023/11/11 12:24:26;;;;;;;2.63;1.10;;;21.10;95.50;;;;;;5033224;28;20802;-55
2023/11/11 12:26:54;;;;;;;1.80;0.93;;;21.10;95.40;;;;;;5035003;28;20476;-57
2023/11/11 12:29:21;;;;;;;2.87;1.03;;;21.10;95.40;;;;;;5030828;28;20462;-62
2023/11/11 12:31:49;;;;;;;1.20;1.00;;;21.10;95.40;;;;;;5030334;28;20469;-54
2023/11/11 12:34:18;;;;;;;1.10;1.00;;;21.20;95.40;;;;;;5034694;28;20460;-56
2023/11/11 12:36:47;;;;;;;3.80;1.10;;;21.20;95.50;;;;;;5033322;28;20460;-59
2023/11/11 12:39:14;;;;;;;1.10;0.93;;;21.20;95.50;;;;;;5039281;28;20456;-59
2023/11/11 12:41:46;;;;;;;1.47;1.37;;;21.20;95.50;;;;;;5038122;28;20453;-59
2023/11/11 12:44:12;;;;;;;5.30;1.33;;;21.30;95.60;;;;;;5032256;28;20476;-57
2023/11/11 12:46:40;;;;;;;1.83;0.97;;;21.30;95.70;;;;;;5028854;28;20466;-60
2023/11/11 12:49:08;;;;;;;4.33;1.20;;;21.30;95.70;;;;;;5026484;28;20462;-58